CYSA weather

Stratford Municipal Airport
Stratford, Ontario, Canada

Public forecast

Using degrees Celsius for public forecast. Weather courtesy of forecast.io.

Closest aviation weather report (METAR) to Stratford Municipal Airport

Closest report is Waterloo Airport, 24.4 nm (45.2 km) E. Retrieved 2019/10/20 21:00 UTC (13 minutes ago):

CYKF 202100Z AUTO VRB04KT 9SM CLR 19/09 A2990 RMK SLP128 DENSITY ALT 1700FT

Closest aviation forecast (TAF) to Stratford Municipal Airport

Closest forecast is Waterloo Airport, 24.4 nm (45.2 km) E. Retrieved 2019/10/20 20:42 UTC (31 minutes ago):

TAF CYKF 201938Z 2020/2108 20006KT P6SM BKN120 TEMPO 2102/2108 11/2SM BR PROB40 2104/2108 1/8SM -DZ FG RMK FCST BASED ON AUTO OBS NXT FCST BY 210200Z